sensor_id;sensor_type;location;lat;lon;timestamp;P1;durP1;ratioP1;P2;durP2;ratioP2
50733;SDS011;36701;51.798;19.474;2022-11-14T00:01:25;63.45;;;24.85;;
50733;SDS011;36701;51.798;19.474;2022-11-14T00:04:10;61.28;;;22.13;;
50733;SDS011;36701;51.798;19.474;2022-11-14T00:06:55;52.30;;;20.27;;
50733;SDS011;36701;51.798;19.474;2022-11-14T00:09:40;49.72;;;17.48;;
50733;SDS011;36701;51.798;19.474;2022-11-14T00:12:26;58.15;;;17.92;;
50733;SDS011;36701;51.798;19.474;2022-11-14T00:15:11;60.35;;;19.92;;
50733;SDS011;36701;51.798;19.474;2022-11-14T00:17:57;61.55;;;20.50;;
50733;SDS011;36701;51.798;19.474;2022-11-14T00:20:42;51.37;;;18.05;;
50733;SDS011;36701;51.798;19.474;2022-11-14T00:23:27;56.58;;;18.87;;
50733;SDS011;36701;51.798;19.474;2022-11-14T00:26:12;60.67;;;18.73;;
50733;SDS011;36701;51.798;19.474;2022-11-14T00:28:56;46.53;;;16.50;;
50733;SDS011;36701;51.798;19.474;2022-11-14T00:31:41;45.42;;;17.15;;
50733;SDS011;36701;51.798;19.474;2022-11-14T00:34:26;57.65;;;21.85;;
50733;SDS011;36701;51.798;19.474;2022-11-14T00:37:11;63.38;;;20.12;;
50733;SDS011;36701;51.798;19.474;2022-11-14T00:39:56;52.08;;;21.42;;
50733;SDS011;36701;51.798;19.474;2022-11-14T00:42:41;60.65;;;23.95;;
50733;SDS011;36701;51.798;19.474;2022-11-14T00:45:25;58.60;;;20.58;;
50733;SDS011;36701;51.798;19.474;2022-11-14T00:48:10;63.53;;;24.33;;
50733;SDS011;36701;51.798;19.474;2022-11-14T00:50:56;61.55;;;22.10;;
50733;SDS011;36701;51.798;19.474;2022-11-14T00:53:41;61.60;;;20.55;;
50733;SDS011;36701;51.798;19.474;2022-11-14T00:56:33;61.15;;;22.20;;
50733;SDS011;36701;51.798;19.474;2022-11-14T00:59:18;48.22;;;19.33;;
50733;SDS011;36701;51.798;19.474;2022-11-14T01:02:02;56.65;;;20.50;;
50733;SDS011;36701;51.798;19.474;2022-11-14T01:04:47;55.35;;;20.27;;
50733;SDS011;36701;51.798;19.474;2022-11-14T01:07:32;58.30;;;22.55;;
50733;SDS011;36701;51.798;19.474;2022-11-14T01:10:17;55.05;;;20.48;;
50733;SDS011;36701;51.798;19.474;2022-11-14T01:13:02;63.87;;;22.85;;
50733;SDS011;36701;51.798;19.474;2022-11-14T01:15:47;62.85;;;23.02;;
50733;SDS011;36701;51.798;19.474;2022-11-14T01:18:33;60.17;;;20.20;;
50733;SDS011;36701;51.798;19.474;2022-11-14T01:21:18;57.22;;;20.92;;
50733;SDS011;36701;51.798;19.474;2022-11-14T01:24:03;56.50;;;17.83;;
50733;SDS011;36701;51.798;19.474;2022-11-14T01:26:49;50.83;;;19.65;;
50733;SDS011;36701;51.798;19.474;2022-11-14T01:29:34;64.03;;;21.58;;
50733;SDS011;36701;51.798;19.474;2022-11-14T01:32:18;53.65;;;20.62;;
50733;SDS011;36701;51.798;19.474;2022-11-14T01:35:03;66.78;;;24.67;;
50733;SDS011;36701;51.798;19.474;2022-11-14T01:37:48;51.67;;;20.88;;
50733;SDS011;36701;51.798;19.474;2022-11-14T01:40:33;64.82;;;21.83;;
50733;SDS011;36701;51.798;19.474;2022-11-14T01:43:26;55.92;;;21.37;;
50733;SDS011;36701;51.798;19.474;2022-11-14T01:46:21;68.12;;;25.30;;
50733;SDS011;36701;51.798;19.474;2022-11-14T01:52:06;68.82;;;21.62;;
50733;SDS011;36701;51.798;19.474;2022-11-14T01:54:56;56.97;;;21.25;;
50733;SDS011;36701;51.798;19.474;2022-11-14T01:57:45;63.60;;;24.52;;
50733;SDS011;36701;51.798;19.474;2022-11-14T02:00:31;63.03;;;19.95;;
50733;SDS011;36701;51.798;19.474;2022-11-14T02:03:16;56.42;;;19.05;;
50733;SDS011;36701;51.798;19.474;2022-11-14T02:06:02;49.83;;;19.65;;
50733;SDS011;36701;51.798;19.474;2022-11-14T02:08:49;63.80;;;21.35;;
50733;SDS011;36701;51.798;19.474;2022-11-14T02:11:37;65.45;;;20.33;;
50733;SDS011;36701;51.798;19.474;2022-11-14T02:14:25;40.72;;;14.23;;
50733;SDS011;36701;51.798;19.474;2022-11-14T02:17:12;53.92;;;20.15;;
50733;SDS011;36701;51.798;19.474;2022-11-14T02:22:49;38.33;;;13.43;;
50733;SDS011;36701;51.798;19.474;2022-11-14T02:25:34;49.35;;;20.00;;
50733;SDS011;36701;51.798;19.474;2022-11-14T02:28:19;68.72;;;25.08;;
50733;SDS011;36701;51.798;19.474;2022-11-14T02:31:05;65.03;;;21.00;;
50733;SDS011;36701;51.798;19.474;2022-11-14T02:33:50;56.25;;;18.75;;
50733;SDS011;36701;51.798;19.474;2022-11-14T02:36:35;52.85;;;19.27;;
50733;SDS011;36701;51.798;19.474;2022-11-14T02:39:19;49.95;;;18.58;;
50733;SDS011;36701;51.798;19.474;2022-11-14T02:42:05;58.90;;;21.83;;
50733;SDS011;36701;51.798;19.474;2022-11-14T02:44:50;50.58;;;16.87;;
50733;SDS011;36701;51.798;19.474;2022-11-14T02:47:34;52.25;;;20.08;;
50733;SDS011;36701;51.798;19.474;2022-11-14T02:50:19;61.20;;;23.17;;
50733;SDS011;36701;51.798;19.474;2022-11-14T02:53:04;66.57;;;22.33;;
50733;SDS011;36701;51.798;19.474;2022-11-14T02:55:49;65.93;;;19.30;;
50733;SDS011;36701;51.798;19.474;2022-11-14T02:58:34;59.20;;;23.35;;
50733;SDS011;36701;51.798;19.474;2022-11-14T03:01:19;67.07;;;22.13;;
50733;SDS011;36701;51.798;19.474;2022-11-14T03:04:04;63.00;;;21.95;;
50733;SDS011;36701;51.798;19.474;2022-11-14T03:06:49;61.08;;;20.12;;
50733;SDS011;36701;51.798;19.474;2022-11-14T03:09:34;55.60;;;19.75;;
50733;SDS011;36701;51.798;19.474;2022-11-14T03:12:19;61.63;;;21.02;;
50733;SDS011;36701;51.798;19.474;2022-11-14T03:15:05;64.68;;;25.50;;
50733;SDS011;36701;51.798;19.474;2022-11-14T03:17:50;64.57;;;21.40;;
50733;SDS011;36701;51.798;19.474;2022-11-14T03:20:35;68.03;;;23.80;;
50733;SDS011;36701;51.798;19.474;2022-11-14T03:23:20;57.83;;;21.27;;
50733;SDS011;36701;51.798;19.474;2022-11-14T03:26:06;50.05;;;18.00;;
50733;SDS011;36701;51.798;19.474;2022-11-14T03:28:53;56.83;;;20.50;;
50733;SDS011;36701;51.798;19.474;2022-11-14T03:31:38;58.10;;;21.10;;
50733;SDS011;36701;51.798;19.474;2022-11-14T03:34:23;52.30;;;20.02;;
50733;SDS011;36701;51.798;19.474;2022-11-14T03:37:08;57.53;;;23.95;;
50733;SDS011;36701;51.798;19.474;2022-11-14T03:39:53;63.53;;;21.23;;
50733;SDS011;36701;51.798;19.474;2022-11-14T03:42:38;48.75;;;16.75;;
50733;SDS011;36701;51.798;19.474;2022-11-14T03:45:23;59.60;;;18.77;;
50733;SDS011;36701;51.798;19.474;2022-11-14T03:48:08;52.00;;;17.73;;
50733;SDS011;36701;51.798;19.474;2022-11-14T03:50:54;64.95;;;19.25;;
50733;SDS011;36701;51.798;19.474;2022-11-14T03:53:39;61.65;;;19.60;;
50733;SDS011;36701;51.798;19.474;2022-11-14T03:56:24;53.75;;;17.20;;
50733;SDS011;36701;51.798;19.474;2022-11-14T03:59:09;53.72;;;19.15;;
50733;SDS011;36701;51.798;19.474;2022-11-14T04:01:54;48.63;;;15.57;;
50733;SDS011;36701;51.798;19.474;2022-11-14T04:04:39;77.20;;;23.08;;
50733;SDS011;36701;51.798;19.474;2022-11-14T04:07:24;55.38;;;17.98;;
50733;SDS011;36701;51.798;19.474;2022-11-14T04:10:09;74.75;;;23.45;;
50733;SDS011;36701;51.798;19.474;2022-11-14T04:12:54;69.87;;;21.25;;
50733;SDS011;36701;51.798;19.474;2022-11-14T04:15:39;65.60;;;19.75;;
50733;SDS011;36701;51.798;19.474;2022-11-14T04:18:24;64.72;;;24.37;;
50733;SDS011;36701;51.798;19.474;2022-11-14T04:21:09;56.78;;;19.27;;
50733;SDS011;36701;51.798;19.474;2022-11-14T04:23:54;65.18;;;22.17;;
50733;SDS011;36701;51.798;19.474;2022-11-14T04:26:39;65.25;;;22.00;;
50733;SDS011;36701;51.798;19.474;2022-11-14T04:29:24;58.00;;;22.83;;
50733;SDS011;36701;51.798;19.474;2022-11-14T04:32:09;62.75;;;20.02;;
50733;SDS011;36701;51.798;19.474;2022-11-14T04:34:54;68.47;;;22.17;;
50733;SDS011;36701;51.798;19.474;2022-11-14T04:37:39;56.90;;;22.30;;
50733;SDS011;36701;51.798;19.474;2022-11-14T04:40:24;56.35;;;20.65;;
50733;SDS011;36701;51.798;19.474;2022-11-14T04:43:08;57.17;;;16.45;;
50733;SDS011;36701;51.798;19.474;2022-11-14T04:46:06;58.20;;;18.60;;
50733;SDS011;36701;51.798;19.474;2022-11-14T04:48:51;64.47;;;19.55;;
50733;SDS011;36701;51.798;19.474;2022-11-14T04:51:36;50.05;;;18.60;;
50733;SDS011;36701;51.798;19.474;2022-11-14T04:54:21;46.15;;;18.55;;
50733;SDS011;36701;51.798;19.474;2022-11-14T04:57:06;59.20;;;20.60;;
50733;SDS011;36701;51.798;19.474;2022-11-14T04:59:51;59.80;;;20.75;;
50733;SDS011;36701;51.798;19.474;2022-11-14T05:02:36;59.55;;;19.85;;
50733;SDS011;36701;51.798;19.474;2022-11-14T05:05:20;62.83;;;20.10;;
50733;SDS011;36701;51.798;19.474;2022-11-14T05:08:05;63.25;;;23.90;;
50733;SDS011;36701;51.798;19.474;2022-11-14T05:10:50;63.42;;;22.40;;
50733;SDS011;36701;51.798;19.474;2022-11-14T05:13:35;69.18;;;21.77;;
50733;SDS011;36701;51.798;19.474;2022-11-14T05:16:20;57.67;;;19.00;;
50733;SDS011;36701;51.798;19.474;2022-11-14T05:19:05;57.05;;;21.98;;
50733;SDS011;36701;51.798;19.474;2022-11-14T05:21:49;61.05;;;23.73;;
50733;SDS011;36701;51.798;19.474;2022-11-14T05:24:34;64.62;;;23.48;;
50733;SDS011;36701;51.798;19.474;2022-11-14T05:27:19;67.85;;;25.67;;
50733;SDS011;36701;51.798;19.474;2022-11-14T05:30:04;54.95;;;21.90;;
50733;SDS011;36701;51.798;19.474;2022-11-14T05:32:52;64.60;;;21.08;;
50733;SDS011;36701;51.798;19.474;2022-11-14T05:35:37;80.72;;;27.62;;
50733;SDS011;36701;51.798;19.474;2022-11-14T05:38:22;60.88;;;20.83;;
50733;SDS011;36701;51.798;19.474;2022-11-14T05:41:08;65.10;;;21.15;;
50733;SDS011;36701;51.798;19.474;2022-11-14T05:43:53;80.90;;;28.12;;
50733;SDS011;36701;51.798;19.474;2022-11-14T05:46:38;70.72;;;26.15;;
50733;SDS011;36701;51.798;19.474;2022-11-14T05:49:23;47.80;;;18.87;;
50733;SDS011;36701;51.798;19.474;2022-11-14T05:52:09;82.40;;;27.20;;
50733;SDS011;36701;51.798;19.474;2022-11-14T05:54:54;67.93;;;24.25;;
50733;SDS011;36701;51.798;19.474;2022-11-14T05:57:39;48.33;;;16.48;;
50733;SDS011;36701;51.798;19.474;2022-11-14T06:00:25;69.65;;;24.02;;
50733;SDS011;36701;51.798;19.474;2022-11-14T06:03:11;64.65;;;21.08;;
50733;SDS011;36701;51.798;19.474;2022-11-14T06:05:58;60.08;;;19.77;;
50733;SDS011;36701;51.798;19.474;2022-11-14T06:08:48;60.03;;;20.12;;
50733;SDS011;36701;51.798;19.474;2022-11-14T06:11:33;59.65;;;19.17;;
50733;SDS011;36701;51.798;19.474;2022-11-14T06:14:18;66.18;;;19.87;;
50733;SDS011;36701;51.798;19.474;2022-11-14T06:17:04;51.53;;;18.33;;
50733;SDS011;36701;51.798;19.474;2022-11-14T06:19:50;59.92;;;20.58;;
50733;SDS011;36701;51.798;19.474;2022-11-14T06:22:35;64.03;;;21.90;;
50733;SDS011;36701;51.798;19.474;2022-11-14T06:25:20;54.70;;;21.48;;
50733;SDS011;36701;51.798;19.474;2022-11-14T06:28:05;57.42;;;16.87;;
50733;SDS011;36701;51.798;19.474;2022-11-14T06:30:55;50.35;;;15.85;;
50733;SDS011;36701;51.798;19.474;2022-11-14T06:33:47;46.28;;;16.20;;
50733;SDS011;36701;51.798;19.474;2022-11-14T06:36:33;46.17;;;17.02;;
50733;SDS011;36701;51.798;19.474;2022-11-14T06:39:17;128.80;;;30.33;;
50733;SDS011;36701;51.798;19.474;2022-11-14T06:42:07;70.00;;;18.98;;
50733;SDS011;36701;51.798;19.474;2022-11-14T06:44:53;64.20;;;19.02;;
50733;SDS011;36701;51.798;19.474;2022-11-14T06:47:38;52.70;;;17.33;;
50733;SDS011;36701;51.798;19.474;2022-11-14T06:50:22;83.05;;;23.55;;
50733;SDS011;36701;51.798;19.474;2022-11-14T06:53:07;68.37;;;18.52;;
50733;SDS011;36701;51.798;19.474;2022-11-14T06:58:45;78.65;;;23.75;;
50733;SDS011;36701;51.798;19.474;2022-11-14T07:01:32;67.78;;;24.10;;
50733;SDS011;36701;51.798;19.474;2022-11-14T07:04:17;60.75;;;21.10;;
50733;SDS011;36701;51.798;19.474;2022-11-14T07:07:02;54.90;;;17.00;;
50733;SDS011;36701;51.798;19.474;2022-11-14T07:09:47;57.72;;;19.08;;
50733;SDS011;36701;51.798;19.474;2022-11-14T07:12:32;99.72;;;24.60;;
50733;SDS011;36701;51.798;19.474;2022-11-14T07:15:17;102.43;;;24.87;;
50733;SDS011;36701;51.798;19.474;2022-11-14T07:18:02;112.22;;;26.90;;
50733;SDS011;36701;51.798;19.474;2022-11-14T07:21:01;63.85;;;22.05;;
50733;SDS011;36701;51.798;19.474;2022-11-14T07:23:49;81.87;;;21.92;;
50733;SDS011;36701;51.798;19.474;2022-11-14T07:26:41;78.25;;;21.48;;
50733;SDS011;36701;51.798;19.474;2022-11-14T07:29:26;103.18;;;28.58;;
50733;SDS011;36701;51.798;19.474;2022-11-14T07:32:11;99.97;;;27.50;;
50733;SDS011;36701;51.798;19.474;2022-11-14T07:34:57;88.70;;;26.30;;
50733;SDS011;36701;51.798;19.474;2022-11-14T07:37:42;70.90;;;23.00;;
50733;SDS011;36701;51.798;19.474;2022-11-14T07:40:27;70.75;;;18.80;;
50733;SDS011;36701;51.798;19.474;2022-11-14T07:43:12;51.95;;;18.27;;
50733;SDS011;36701;51.798;19.474;2022-11-14T07:45:58;66.07;;;19.60;;
50733;SDS011;36701;51.798;19.474;2022-11-14T07:48:44;61.72;;;18.87;;
50733;SDS011;36701;51.798;19.474;2022-11-14T07:51:29;90.85;;;20.88;;
50733;SDS011;36701;51.798;19.474;2022-11-14T07:54:15;61.67;;;19.75;;
50733;SDS011;36701;51.798;19.474;2022-11-14T07:57:03;58.83;;;19.40;;
50733;SDS011;36701;51.798;19.474;2022-11-14T08:00:00;65.00;;;17.92;;
50733;SDS011;36701;51.798;19.474;2022-11-14T08:02:54;57.53;;;20.60;;
50733;SDS011;36701;51.798;19.474;2022-11-14T08:05:44;74.10;;;24.10;;
50733;SDS011;36701;51.798;19.474;2022-11-14T08:08:33;57.55;;;20.23;;
50733;SDS011;36701;51.798;19.474;2022-11-14T08:11:18;103.60;;;23.27;;
50733;SDS011;36701;51.798;19.474;2022-11-14T08:14:23;143.90;;;23.00;;
50733;SDS011;36701;51.798;19.474;2022-11-14T08:17:08;78.25;;;18.75;;
50733;SDS011;36701;51.798;19.474;2022-11-14T08:19:53;52.85;;;17.58;;
50733;SDS011;36701;51.798;19.474;2022-11-14T08:22:44;56.67;;;17.75;;
50733;SDS011;36701;51.798;19.474;2022-11-14T08:25:29;83.78;;;21.40;;
50733;SDS011;36701;51.798;19.474;2022-11-14T08:28:15;57.95;;;18.48;;
50733;SDS011;36701;51.798;19.474;2022-11-14T08:31:00;51.15;;;19.05;;
50733;SDS011;36701;51.798;19.474;2022-11-14T08:33:46;62.47;;;20.60;;
50733;SDS011;36701;51.798;19.474;2022-11-14T08:36:33;57.72;;;19.85;;
50733;SDS011;36701;51.798;19.474;2022-11-14T08:39:17;59.78;;;23.25;;
50733;SDS011;36701;51.798;19.474;2022-11-14T08:42:03;65.70;;;23.55;;
50733;SDS011;36701;51.798;19.474;2022-11-14T08:44:48;54.47;;;22.25;;
50733;SDS011;36701;51.798;19.474;2022-11-14T08:47:33;60.53;;;21.33;;
50733;SDS011;36701;51.798;19.474;2022-11-14T08:50:24;40.28;;;16.27;;
50733;SDS011;36701;51.798;19.474;2022-11-14T08:53:11;133.25;;;21.75;;
50733;SDS011;36701;51.798;19.474;2022-11-14T08:56:01;50.85;;;18.35;;
50733;SDS011;36701;51.798;19.474;2022-11-14T08:58:55;46.22;;;16.87;;
50733;SDS011;36701;51.798;19.474;2022-11-14T09:01:41;51.50;;;20.45;;
50733;SDS011;36701;51.798;19.474;2022-11-14T09:04:32;51.88;;;18.62;;
50733;SDS011;36701;51.798;19.474;2022-11-14T09:07:27;46.03;;;18.42;;
50733;SDS011;36701;51.798;19.474;2022-11-14T09:10:13;52.17;;;16.33;;
50733;SDS011;36701;51.798;19.474;2022-11-14T09:12:58;44.97;;;15.13;;
50733;SDS011;36701;51.798;19.474;2022-11-14T09:15:50;48.70;;;17.95;;
50733;SDS011;36701;51.798;19.474;2022-11-14T09:18:35;55.12;;;20.52;;
50733;SDS011;36701;51.798;19.474;2022-11-14T09:21:28;44.85;;;17.30;;
50733;SDS011;36701;51.798;19.474;2022-11-14T09:24:20;59.33;;;22.25;;
50733;SDS011;36701;51.798;19.474;2022-11-14T09:27:05;53.40;;;20.92;;
50733;SDS011;36701;51.798;19.474;2022-11-14T09:29:58;45.92;;;16.83;;
50733;SDS011;36701;51.798;19.474;2022-11-14T09:32:43;48.58;;;19.67;;
50733;SDS011;36701;51.798;19.474;2022-11-14T09:35:29;52.65;;;18.12;;
50733;SDS011;36701;51.798;19.474;2022-11-14T09:38:20;69.53;;;21.10;;
50733;SDS011;36701;51.798;19.474;2022-11-14T09:44:18;43.90;;;17.65;;
50733;SDS011;36701;51.798;19.474;2022-11-14T09:47:48;49.08;;;17.58;;
50733;SDS011;36701;51.798;19.474;2022-11-14T09:50:44;46.22;;;18.45;;
50733;SDS011;36701;51.798;19.474;2022-11-14T09:53:41;54.17;;;19.30;;
50733;SDS011;36701;51.798;19.474;2022-11-14T09:56:34;45.22;;;19.35;;
50733;SDS011;36701;51.798;19.474;2022-11-14T09:59:18;51.70;;;20.33;;
50733;SDS011;36701;51.798;19.474;2022-11-14T10:05:12;50.40;;;20.40;;
50733;SDS011;36701;51.798;19.474;2022-11-14T10:11:36;48.67;;;19.45;;
50733;SDS011;36701;51.798;19.474;2022-11-14T10:27:28;75.97;;;21.83;;
50733;SDS011;36701;51.798;19.474;2022-11-14T10:30:36;66.32;;;24.00;;
50733;SDS011;36701;51.798;19.474;2022-11-14T10:37:35;66.87;;;22.42;;
50733;SDS011;36701;51.798;19.474;2022-11-14T10:40:28;62.17;;;22.75;;
50733;SDS011;36701;51.798;19.474;2022-11-14T10:46:13;59.20;;;20.90;;
50733;SDS011;36701;51.798;19.474;2022-11-14T10:49:15;65.15;;;24.12;;
50733;SDS011;36701;51.798;19.474;2022-11-14T10:52:14;58.65;;;22.62;;
50733;SDS011;36701;51.798;19.474;2022-11-14T10:55:15;61.22;;;23.02;;
50733;SDS011;36701;51.798;19.474;2022-11-14T10:58:09;69.18;;;26.45;;
50733;SDS011;36701;51.798;19.474;2022-11-14T11:04:32;66.12;;;27.25;;
50733;SDS011;36701;51.798;19.474;2022-11-14T11:07:31;59.72;;;24.17;;
50733;SDS011;36701;51.798;19.474;2022-11-14T11:10:49;52.03;;;20.33;;
50733;SDS011;36701;51.798;19.474;2022-11-14T11:14:01;53.13;;;22.77;;
50733;SDS011;36701;51.798;19.474;2022-11-14T11:16:45;58.33;;;21.17;;
50733;SDS011;36701;51.798;19.474;2022-11-14T11:19:31;68.10;;;26.00;;
50733;SDS011;36701;51.798;19.474;2022-11-14T11:25:22;72.82;;;25.62;;
50733;SDS011;36701;51.798;19.474;2022-11-14T11:28:11;59.03;;;21.48;;
50733;SDS011;36701;51.798;19.474;2022-11-14T11:31:07;65.40;;;24.15;;
50733;SDS011;36701;51.798;19.474;2022-11-14T11:33:53;60.95;;;22.92;;
50733;SDS011;36701;51.798;19.474;2022-11-14T11:36:39;60.38;;;22.23;;
50733;SDS011;36701;51.798;19.474;2022-11-14T11:39:29;53.47;;;22.85;;
50733;SDS011;36701;51.798;19.474;2022-11-14T11:45:10;60.85;;;28.35;;
50733;SDS011;36701;51.798;19.474;2022-11-14T11:51:23;77.55;;;32.00;;
50733;SDS011;36701;51.798;19.474;2022-11-14T11:54:19;60.53;;;25.98;;
50733;SDS011;36701;51.798;19.474;2022-11-14T11:57:31;55.03;;;24.65;;
50733;SDS011;36701;51.798;19.474;2022-11-14T12:00:34;70.37;;;28.42;;
50733;SDS011;36701;51.798;19.474;2022-11-14T12:03:25;69.35;;;26.23;;
50733;SDS011;36701;51.798;19.474;2022-11-14T12:12:17;67.93;;;27.13;;
50733;SDS011;36701;51.798;19.474;2022-11-14T12:22:03;61.50;;;24.42;;
50733;SDS011;36701;51.798;19.474;2022-11-14T12:31:03;69.22;;;25.35;;
50733;SDS011;36701;51.798;19.474;2022-11-14T12:37:08;61.95;;;22.60;;
50733;SDS011;36701;51.798;19.474;2022-11-14T12:40:05;64.57;;;26.55;;
50733;SDS011;36701;51.798;19.474;2022-11-14T12:43:00;52.62;;;19.52;;
50733;SDS011;36701;51.798;19.474;2022-11-14T12:57:29;58.08;;;22.50;;
50733;SDS011;36701;51.798;19.474;2022-11-14T13:00:51;66.05;;;28.15;;
50733;SDS011;36701;51.798;19.474;2022-11-14T13:04:05;65.12;;;24.60;;
50733;SDS011;36701;51.798;19.474;2022-11-14T13:07:20;56.92;;;23.52;;
50733;SDS011;36701;51.798;19.474;2022-11-14T13:13:12;66.35;;;24.67;;
50733;SDS011;36701;51.798;19.474;2022-11-14T13:16:22;53.78;;;21.23;;
50733;SDS011;36701;51.798;19.474;2022-11-14T13:19:28;56.63;;;22.08;;
50733;SDS011;36701;51.798;19.474;2022-11-14T13:22:42;46.15;;;18.98;;
50733;SDS011;36701;51.798;19.474;2022-11-14T13:25:29;56.20;;;23.17;;
50733;SDS011;36701;51.798;19.474;2022-11-14T13:32:06;54.45;;;23.12;;
50733;SDS011;36701;51.798;19.474;2022-11-14T13:40:39;52.22;;;20.67;;
50733;SDS011;36701;51.798;19.474;2022-11-14T13:44:01;48.50;;;20.75;;
50733;SDS011;36701;51.798;19.474;2022-11-14T13:50:18;51.58;;;19.02;;
50733;SDS011;36701;51.798;19.474;2022-11-14T13:53:16;50.20;;;20.10;;
50733;SDS011;36701;51.798;19.474;2022-11-14T13:56:24;57.97;;;23.12;;
50733;SDS011;36701;51.798;19.474;2022-11-14T14:15:30;61.00;;;23.35;;
50733;SDS011;36701;51.798;19.474;2022-11-14T14:27:11;60.53;;;25.73;;
50733;SDS011;36701;51.798;19.474;2022-11-14T14:35:57;62.72;;;27.10;;
50733;SDS011;36701;51.798;19.474;2022-11-14T14:38:42;61.42;;;25.83;;
50733;SDS011;36701;51.798;19.474;2022-11-14T14:41:29;57.00;;;22.87;;
50733;SDS011;36701;51.798;19.474;2022-11-14T14:50:41;51.53;;;20.55;;
50733;SDS011;36701;51.798;19.474;2022-11-14T14:53:33;54.05;;;27.87;;
50733;SDS011;36701;51.798;19.474;2022-11-14T14:56:21;61.13;;;25.50;;
50733;SDS011;36701;51.798;19.474;2022-11-14T14:59:20;53.13;;;25.33;;
50733;SDS011;36701;51.798;19.474;2022-11-14T15:02:11;51.30;;;23.15;;
50733;SDS011;36701;51.798;19.474;2022-11-14T15:04:59;65.05;;;27.80;;
50733;SDS011;36701;51.798;19.474;2022-11-14T15:07:45;58.87;;;22.52;;
50733;SDS011;36701;51.798;19.474;2022-11-14T15:10:32;72.53;;;25.67;;
50733;SDS011;36701;51.798;19.474;2022-11-14T15:13:17;59.47;;;22.60;;
50733;SDS011;36701;51.798;19.474;2022-11-14T15:16:04;56.22;;;25.60;;
50733;SDS011;36701;51.798;19.474;2022-11-14T15:18:50;59.45;;;24.30;;
50733;SDS011;36701;51.798;19.474;2022-11-14T15:21:37;73.87;;;30.08;;
50733;SDS011;36701;51.798;19.474;2022-11-14T15:24:22;58.28;;;26.12;;
50733;SDS011;36701;51.798;19.474;2022-11-14T15:27:10;71.22;;;30.70;;
50733;SDS011;36701;51.798;19.474;2022-11-14T15:29:58;64.75;;;28.30;;
50733;SDS011;36701;51.798;19.474;2022-11-14T15:33:04;76.32;;;28.33;;
50733;SDS011;36701;51.798;19.474;2022-11-14T15:36:10;70.70;;;31.12;;
50733;SDS011;36701;51.798;19.474;2022-11-14T15:39:00;62.85;;;24.90;;
50733;SDS011;36701;51.798;19.474;2022-11-14T15:41:47;70.93;;;26.12;;
50733;SDS011;36701;51.798;19.474;2022-11-14T15:44:33;74.62;;;28.35;;
50733;SDS011;36701;51.798;19.474;2022-11-14T15:47:19;56.63;;;22.02;;
50733;SDS011;36701;51.798;19.474;2022-11-14T15:55:46;64.72;;;28.80;;
50733;SDS011;36701;51.798;19.474;2022-11-14T15:58:31;62.85;;;27.30;;
50733;SDS011;36701;51.798;19.474;2022-11-14T16:01:23;66.28;;;29.98;;
50733;SDS011;36701;51.798;19.474;2022-11-14T16:04:10;72.87;;;27.90;;
50733;SDS011;36701;51.798;19.474;2022-11-14T16:06:59;57.35;;;23.20;;
50733;SDS011;36701;51.798;19.474;2022-11-14T16:09:44;65.07;;;27.25;;
50733;SDS011;36701;51.798;19.474;2022-11-14T16:12:29;57.38;;;22.67;;
50733;SDS011;36701;51.798;19.474;2022-11-14T16:15:14;55.38;;;24.58;;
50733;SDS011;36701;51.798;19.474;2022-11-14T16:18:02;66.45;;;25.73;;
50733;SDS011;36701;51.798;19.474;2022-11-14T16:20:48;70.90;;;27.05;;
50733;SDS011;36701;51.798;19.474;2022-11-14T16:23:33;60.67;;;25.10;;
50733;SDS011;36701;51.798;19.474;2022-11-14T16:26:18;44.20;;;18.37;;
50733;SDS011;36701;51.798;19.474;2022-11-14T16:29:03;63.47;;;27.58;;
50733;SDS011;36701;51.798;19.474;2022-11-14T16:31:47;57.28;;;23.20;;
50733;SDS011;36701;51.798;19.474;2022-11-14T16:34:35;69.03;;;21.00;;
50733;SDS011;36701;51.798;19.474;2022-11-14T16:37:19;56.80;;;23.17;;
50733;SDS011;36701;51.798;19.474;2022-11-14T16:40:05;70.72;;;22.33;;
50733;SDS011;36701;51.798;19.474;2022-11-14T16:42:55;65.90;;;27.10;;
50733;SDS011;36701;51.798;19.474;2022-11-14T16:45:42;69.82;;;25.25;;
50733;SDS011;36701;51.798;19.474;2022-11-14T16:48:27;75.68;;;28.35;;
50733;SDS011;36701;51.798;19.474;2022-11-14T16:51:12;57.20;;;23.62;;
50733;SDS011;36701;51.798;19.474;2022-11-14T16:53:57;65.68;;;26.20;;
50733;SDS011;36701;51.798;19.474;2022-11-14T16:56:42;69.85;;;29.35;;
50733;SDS011;36701;51.798;19.474;2022-11-14T16:59:27;67.07;;;25.73;;
50733;SDS011;36701;51.798;19.474;2022-11-14T17:02:15;66.80;;;25.83;;
50733;SDS011;36701;51.798;19.474;2022-11-14T17:04:59;63.87;;;25.08;;
50733;SDS011;36701;51.798;19.474;2022-11-14T17:07:44;67.85;;;26.65;;
50733;SDS011;36701;51.798;19.474;2022-11-14T17:10:29;68.55;;;28.10;;
50733;SDS011;36701;51.798;19.474;2022-11-14T17:13:14;70.45;;;27.65;;
50733;SDS011;36701;51.798;19.474;2022-11-14T17:16:03;62.95;;;24.15;;
50733;SDS011;36701;51.798;19.474;2022-11-14T17:18:51;69.53;;;27.73;;
50733;SDS011;36701;51.798;19.474;2022-11-14T17:21:37;67.72;;;25.12;;
50733;SDS011;36701;51.798;19.474;2022-11-14T17:24:23;79.45;;;28.20;;
50733;SDS011;36701;51.798;19.474;2022-11-14T17:27:08;67.15;;;24.00;;
50733;SDS011;36701;51.798;19.474;2022-11-14T17:29:56;70.12;;;25.77;;
50733;SDS011;36701;51.798;19.474;2022-11-14T17:32:41;77.53;;;30.98;;
50733;SDS011;36701;51.798;19.474;2022-11-14T17:35:35;67.78;;;25.15;;
50733;SDS011;36701;51.798;19.474;2022-11-14T17:38:20;72.40;;;28.48;;
50733;SDS011;36701;51.798;19.474;2022-11-14T17:41:05;69.32;;;29.60;;
50733;SDS011;36701;51.798;19.474;2022-11-14T17:43:51;65.65;;;25.27;;
50733;SDS011;36701;51.798;19.474;2022-11-14T17:46:38;61.95;;;24.67;;
50733;SDS011;36701;51.798;19.474;2022-11-14T17:49:22;73.68;;;26.98;;
50733;SDS011;36701;51.798;19.474;2022-11-14T17:52:07;70.53;;;28.98;;
50733;SDS011;36701;51.798;19.474;2022-11-14T17:54:52;77.82;;;27.02;;
50733;SDS011;36701;51.798;19.474;2022-11-14T17:57:37;67.30;;;27.50;;
50733;SDS011;36701;51.798;19.474;2022-11-14T18:00:22;76.82;;;25.27;;
50733;SDS011;36701;51.798;19.474;2022-11-14T18:03:07;72.68;;;27.55;;
50733;SDS011;36701;51.798;19.474;2022-11-14T18:05:52;75.45;;;28.80;;
50733;SDS011;36701;51.798;19.474;2022-11-14T18:08:39;78.85;;;25.58;;
50733;SDS011;36701;51.798;19.474;2022-11-14T18:11:24;74.85;;;28.05;;
50733;SDS011;36701;51.798;19.474;2022-11-14T18:14:09;71.53;;;27.37;;
50733;SDS011;36701;51.798;19.474;2022-11-14T18:16:55;78.05;;;29.30;;
50733;SDS011;36701;51.798;19.474;2022-11-14T18:19:40;80.80;;;36.00;;
50733;SDS011;36701;51.798;19.474;2022-11-14T18:22:31;84.20;;;35.63;;
50733;SDS011;36701;51.798;19.474;2022-11-14T18:25:16;90.93;;;30.52;;
50733;SDS011;36701;51.798;19.474;2022-11-14T18:28:01;84.28;;;27.08;;
50733;SDS011;36701;51.798;19.474;2022-11-14T18:30:53;92.10;;;34.72;;
50733;SDS011;36701;51.798;19.474;2022-11-14T18:33:40;83.22;;;28.20;;